Weather at Hibbard's Airport [CLOSED]

Public forecast

Using degrees Fahrenheit for public forecast. Weather courtesy of forecast.io.

Closest aviation weather report (METAR) to Hibbard's Airport

Closest report is Niagara Falls International Airport, 10.5 nm (19.5 km) SW.

2024/05/30 17:53 (retrieved 60 minutes ago)

KIAG 301753Z 34012G21KT 10SM CLR 18/02 A3014 RMK AO2 SLP208 T01780017 10178 20128 58005

Closest aviation forecast (TAF) to Hibbard's Airport

Closest forecast is Niagara Falls International Airport, 10.5 nm (19.5 km) SW.

2024/05/30 18:30 (retrieved 23 minutes ago)

TAF KIAG 301729Z 3018/3118 34012KT P6SM SKC FM302200 33007KT P6SM SKC FM310200 25004KT P6SM SKC FM311600 28006KT P6SM SKC